createdAt,value
2023-03-29T00:01:35.774Z,16.84
2023-03-29T00:04:39.042Z,16.47
2023-03-29T00:07:41.616Z,16.53
2023-03-29T00:10:44.161Z,16.38
2023-03-29T00:13:46.878Z,16.44
2023-03-29T00:16:49.496Z,16.35
2023-03-29T00:19:51.558Z,16.12
2023-03-29T00:22:54.008Z,16.14
2023-03-29T00:25:57.014Z,16.32
2023-03-29T00:28:59.477Z,16.33
2023-03-29T00:32:01.485Z,16.19
2023-03-29T00:35:06.149Z,16.38
2023-03-29T00:38:09.325Z,16.35
2023-03-29T00:41:14.039Z,16.49
2023-03-29T00:44:54.510Z,16.30
2023-03-29T00:48:03.117Z,16.42
2023-03-29T00:51:10.384Z,16.52
2023-03-29T00:54:19.374Z,16.52
2023-03-29T00:57:23.977Z,16.55
2023-03-29T01:00:35.137Z,16.58
2023-03-29T01:03:46.697Z,16.55
2023-03-29T01:07:18.230Z,16.65
2023-03-29T01:10:43.909Z,16.58
2023-03-29T01:13:54.625Z,16.63
2023-03-29T01:16:57.072Z,16.51
2023-03-29T01:20:10.939Z,16.62
2023-03-29T01:23:38.369Z,16.49
2023-03-29T01:27:00.204Z,16.44
2023-03-29T01:30:08.522Z,16.47
2023-03-29T01:33:14.292Z,16.58
2023-03-29T01:36:23.736Z,16.56
2023-03-29T01:39:28.392Z,16.59
2023-03-29T01:42:55.406Z,16.44
2023-03-29T01:46:01.581Z,16.51
2023-03-29T01:49:14.788Z,16.60
2023-03-29T01:52:24.951Z,16.51
2023-03-29T01:55:38.684Z,16.60
2023-03-29T01:58:48.156Z,16.60
2023-03-29T02:01:54.671Z,16.59
2023-03-29T02:04:59.582Z,16.62
2023-03-29T02:08:05.469Z,16.59
2023-03-29T02:11:09.060Z,16.53
2023-03-29T02:14:11.092Z,16.53
2023-03-29T02:17:20.178Z,16.62
2023-03-29T02:20:30.241Z,16.52
2023-03-29T02:23:47.257Z,16.53
2023-03-29T02:26:50.245Z,16.59
2023-03-29T02:29:53.439Z,16.65
2023-03-29T02:33:15.076Z,16.72
2023-03-29T02:36:24.195Z,16.66
2023-03-29T02:39:29.414Z,16.68
2023-03-29T02:42:35.265Z,16.70
2023-03-29T02:45:38.632Z,16.68
2023-03-29T02:48:42.052Z,16.63
2023-03-29T02:51:47.554Z,16.66
2023-03-29T02:54:55.021Z,16.69
2023-03-29T02:57:58.003Z,16.70
2023-03-29T03:01:02.589Z,16.68
2023-03-29T03:04:05.449Z,16.70
2023-03-29T03:07:08.132Z,16.70
2023-03-29T03:10:11.270Z,16.65
2023-03-29T03:13:14.219Z,16.69
2023-03-29T03:16:16.625Z,16.72
2023-03-29T03:19:19.992Z,16.69
2023-03-29T03:22:22.159Z,16.56
2023-03-29T03:25:24.752Z,16.60
2023-03-29T03:28:27.581Z,16.62
2023-03-29T03:31:31.613Z,16.59
2023-03-29T03:34:45.948Z,16.59
2023-03-29T03:37:48.918Z,16.55
2023-03-29T03:40:57.211Z,16.49
2023-03-29T03:44:01.019Z,16.53
2023-03-29T03:47:05.458Z,16.60
2023-03-29T03:50:09.990Z,16.58
2023-03-29T03:53:13.933Z,16.63
2023-03-29T03:56:46.094Z,16.65
2023-03-29T03:59:53.439Z,16.72
2023-03-29T04:03:02.897Z,16.69
2023-03-29T04:06:06.058Z,16.66
2023-03-29T04:09:33.494Z,16.65
2023-03-29T04:12:54.732Z,16.66
2023-03-29T04:16:00.100Z,16.69
2023-03-29T04:19:03.811Z,16.68
2023-03-29T04:22:06.702Z,16.69
2023-03-29T04:25:10.630Z,16.65
2023-03-29T04:28:39.326Z,16.60
2023-03-29T04:31:49.268Z,16.69
2023-03-29T04:35:12.019Z,16.69
2023-03-29T04:38:14.190Z,16.63
2023-03-29T04:41:19.168Z,16.68
2023-03-29T04:44:38.278Z,16.65
2023-03-29T04:47:45.837Z,16.66
2023-03-29T04:50:54.757Z,16.69
2023-03-29T04:53:58.123Z,16.65
2023-03-29T04:57:00.504Z,16.68
2023-03-29T05:00:29.007Z,16.66
2023-03-29T05:03:46.457Z,16.69
2023-03-29T05:06:58.716Z,16.75
2023-03-29T05:10:01.918Z,16.73
2023-03-29T05:13:04.917Z,16.75
2023-03-29T05:16:09.410Z,16.72
2023-03-29T05:19:13.328Z,16.68
2023-03-29T05:22:22.116Z,16.69
2023-03-29T05:25:25.973Z,16.70
2023-03-29T05:28:28.182Z,16.69
2023-03-29T05:31:30.750Z,16.69
2023-03-29T05:34:33.804Z,16.75
2023-03-29T05:37:39.379Z,16.73
2023-03-29T05:40:42.228Z,16.75
2023-03-29T05:44:12.202Z,16.76
2023-03-29T05:47:17.043Z,16.69
2023-03-29T05:50:20.932Z,16.68
2023-03-29T05:53:27.354Z,16.68
2023-03-29T05:56:29.799Z,16.70
2023-03-29T05:59:32.967Z,16.70
2023-03-29T06:02:36.990Z,16.69
2023-03-29T06:05:39.477Z,16.69
2023-03-29T06:08:42.971Z,16.66
2023-03-29T06:12:02.265Z,16.69
2023-03-29T06:15:26.572Z,16.66
2023-03-29T06:18:41.508Z,16.68
2023-03-29T06:21:44.383Z,16.69
2023-03-29T06:24:50.054Z,16.70
2023-03-29T06:27:59.413Z,16.73
2023-03-29T06:31:03.682Z,16.73
2023-03-29T06:34:13.999Z,16.76
2023-03-29T06:37:15.967Z,16.80
2023-03-29T06:40:23.357Z,16.79
2023-03-29T06:43:26.333Z,16.80
2023-03-29T06:46:31.250Z,16.79
2023-03-29T06:49:37.484Z,16.76
2023-03-29T06:52:49.307Z,16.80
2023-03-29T06:55:52.758Z,16.83
2023-03-29T06:59:16.533Z,16.86
2023-03-29T07:02:30.818Z,16.90
2023-03-29T07:05:42.599Z,16.89
2023-03-29T07:08:52.623Z,16.82
2023-03-29T07:12:27.236Z,16.87
2023-03-29T07:15:35.154Z,16.92
2023-03-29T07:18:46.521Z,16.96
2023-03-29T07:22:09.228Z,16.97
2023-03-29T07:25:23.867Z,17.02
2023-03-29T07:28:26.186Z,17.00
2023-03-29T07:31:35.317Z,17.04
2023-03-29T07:35:00.220Z,17.06
2023-03-29T07:38:11.595Z,17.09
2023-03-29T07:41:20.646Z,17.09
2023-03-29T07:44:27.545Z,17.07
2023-03-29T07:47:30.779Z,17.11
2023-03-29T07:50:35.220Z,17.07
2023-03-29T07:53:40.785Z,17.13
2023-03-29T07:56:58.047Z,17.11
2023-03-29T08:00:16.694Z,17.13
2023-03-29T08:03:29.827Z,17.11
2023-03-29T08:06:39.948Z,17.17
2023-03-29T08:09:43.527Z,17.27
2023-03-29T08:12:47.953Z,17.24
2023-03-29T08:15:52.623Z,17.27
2023-03-29T08:19:03.950Z,17.41
2023-03-29T08:22:23.799Z,17.38
2023-03-29T08:25:41.630Z,17.35
2023-03-29T08:28:46.767Z,17.34
2023-03-29T08:31:50.572Z,17.33
2023-03-29T08:34:53.267Z,17.48
2023-03-29T08:38:07.181Z,17.55
2023-03-29T08:41:19.119Z,17.51
2023-03-29T08:44:54.216Z,17.43
2023-03-29T08:48:11.302Z,17.51
2023-03-29T08:51:30.126Z,17.57
2023-03-29T08:54:42.799Z,17.60
2023-03-29T08:57:48.970Z,17.68
2023-03-29T09:01:06.121Z,17.65
2023-03-29T09:04:23.171Z,17.67
2023-03-29T09:07:36.579Z,17.67
2023-03-29T09:11:02.463Z,17.70
2023-03-29T09:14:49.266Z,17.78
2023-03-29T09:18:03.573Z,17.71
2023-03-29T09:21:16.566Z,17.68
2023-03-29T09:24:33.821Z,17.71
2023-03-29T09:28:13.000Z,17.70
2023-03-29T09:31:31.168Z,17.75
2023-03-29T09:34:47.114Z,17.68
2023-03-29T09:37:55.566Z,17.65
2023-03-29T09:41:14.085Z,17.68
2023-03-29T09:44:30.096Z,17.67
2023-03-29T09:47:53.960Z,17.67
2023-03-29T09:51:00.881Z,17.70
2023-03-29T09:54:03.975Z,17.79
2023-03-29T09:57:29.592Z,17.78
2023-03-29T10:00:32.526Z,17.75
2023-03-29T10:03:35.416Z,17.77
2023-03-29T10:07:00.063Z,17.79
2023-03-29T10:10:02.427Z,17.78
2023-03-29T10:13:22.267Z,17.70
2023-03-29T10:16:29.554Z,17.70
2023-03-29T10:19:36.418Z,17.67
2023-03-29T10:22:40.999Z,17.68
2023-03-29T10:25:44.627Z,17.68
2023-03-29T10:28:47.226Z,17.70
2023-03-29T10:31:50.663Z,17.81
2023-03-29T10:34:54.204Z,17.75
2023-03-29T10:37:59.759Z,17.75
2023-03-29T10:41:13.254Z,17.82
2023-03-29T10:44:33.085Z,17.74
2023-03-29T10:47:36.697Z,17.85
2023-03-29T10:50:39.480Z,17.78
2023-03-29T10:53:42.542Z,17.81
2023-03-29T10:56:57.907Z,17.78
2023-03-29T11:00:07.760Z,17.77
2023-03-29T11:03:27.365Z,17.86
2023-03-29T11:06:55.269Z,17.81
2023-03-29T11:10:04.208Z,17.79
2023-03-29T11:13:32.271Z,17.92
2023-03-29T11:17:07.825Z,17.99
2023-03-29T11:20:16.127Z,18.13
2023-03-29T11:23:44.984Z,18.18
2023-03-29T11:27:26.081Z,18.19
2023-03-29T11:30:48.384Z,18.16
2023-03-29T11:34:00.140Z,18.15
2023-03-29T11:37:23.137Z,18.18
2023-03-29T11:40:52.875Z,18.19
2023-03-29T11:44:06.853Z,18.25
2023-03-29T11:47:37.674Z,18.29
2023-03-29T11:51:01.240Z,18.28
2023-03-29T11:54:13.838Z,18.32
2023-03-29T11:57:26.338Z,18.36
2023-03-29T12:00:40.758Z,18.32
2023-03-29T12:04:12.374Z,18.29
2023-03-29T12:07:29.765Z,18.25
2023-03-29T12:10:40.895Z,18.22
2023-03-29T12:13:52.797Z,18.25
2023-03-29T12:17:04.635Z,18.30
2023-03-29T12:20:08.291Z,18.35
2023-03-29T12:23:17.199Z,18.46
2023-03-29T12:26:38.226Z,18.47
2023-03-29T12:30:18.201Z,18.52
2023-03-29T12:33:29.387Z,18.49
2023-03-29T12:37:19.581Z,18.50
2023-03-29T12:40:25.263Z,18.13
2023-03-29T12:43:48.900Z,18.37
2023-03-29T12:47:20.751Z,18.47
2023-03-29T12:50:28.810Z,18.56
2023-03-29T12:53:33.559Z,18.63
2023-03-29T12:56:55.418Z,18.61
2023-03-29T13:00:19.213Z,18.60
2023-03-29T13:03:30.202Z,18.59
2023-03-29T13:06:35.410Z,18.60
2023-03-29T13:09:54.476Z,18.47
2023-03-29T13:12:57.896Z,18.43
2023-03-29T13:16:13.818Z,18.49
2023-03-29T13:19:24.369Z,18.55
2023-03-29T13:22:53.534Z,18.61
2023-03-29T13:26:24.162Z,18.70
2023-03-29T13:29:55.078Z,18.64
2023-03-29T13:33:05.981Z,18.57
2023-03-29T13:36:14.667Z,18.47
2023-03-29T13:39:24.352Z,18.45
2023-03-29T13:42:56.428Z,18.39
2023-03-29T13:45:58.927Z,18.35
2023-03-29T13:49:11.941Z,18.37
2023-03-29T13:52:21.576Z,18.33
2023-03-29T13:55:34.889Z,18.39
2023-03-29T13:58:56.127Z,18.46
2023-03-29T14:02:03.084Z,18.36
2023-03-29T14:05:09.786Z,18.53
2023-03-29T14:08:16.211Z,18.50
2023-03-29T14:11:23.289Z,18.63
2023-03-29T14:14:28.760Z,18.59
2023-03-29T14:17:31.836Z,18.55
2023-03-29T14:20:34.966Z,18.55
2023-03-29T14:23:37.988Z,18.56
2023-03-29T14:26:46.436Z,18.45
2023-03-29T14:29:51.322Z,18.50
2023-03-29T14:32:54.847Z,18.45
2023-03-29T14:36:02.601Z,18.50
2023-03-29T14:39:12.646Z,18.60
2023-03-29T14:42:21.472Z,18.73
2023-03-29T14:45:24.652Z,18.91
2023-03-29T14:48:27.252Z,18.84
2023-03-29T14:51:31.412Z,18.90
2023-03-29T14:54:34.475Z,18.97
2023-03-29T14:57:38.327Z,18.96
2023-03-29T15:00:44.749Z,18.96
2023-03-29T15:03:55.081Z,19.00
2023-03-29T15:06:58.842Z,18.97
2023-03-29T15:10:05.377Z,19.07
2023-03-29T15:13:08.860Z,19.08
2023-03-29T15:16:15.257Z,19.20
2023-03-29T15:19:21.619Z,19.28
2023-03-29T15:22:24.046Z,19.21
2023-03-29T15:25:37.759Z,19.25
2023-03-29T15:28:55.893Z,19.24
2023-03-29T15:31:59.624Z,19.25
2023-03-29T15:35:08.016Z,19.22
2023-03-29T15:38:13.604Z,19.21
2023-03-29T15:41:16.238Z,19.17
2023-03-29T15:44:26.665Z,19.08
2023-03-29T15:47:29.143Z,18.94
2023-03-29T15:50:33.014Z,18.83
2023-03-29T15:53:35.807Z,18.80
2023-03-29T15:56:44.293Z,18.79
2023-03-29T15:59:46.943Z,18.79
2023-03-29T16:02:49.647Z,18.87
2023-03-29T16:05:55.195Z,18.96
2023-03-29T16:08:57.512Z,18.91
2023-03-29T16:12:01.489Z,18.93
2023-03-29T16:15:12.636Z,18.94
2023-03-29T16:18:15.346Z,18.90
2023-03-29T16:21:19.642Z,18.91
2023-03-29T16:24:24.682Z,18.89
2023-03-29T16:27:26.794Z,18.91
2023-03-29T16:30:31.146Z,18.86
2023-03-29T16:33:34.052Z,18.83
2023-03-29T16:36:37.117Z,18.83
2023-03-29T16:39:39.998Z,18.81
2023-03-29T16:42:43.410Z,18.76
2023-03-29T16:45:45.579Z,18.81
2023-03-29T16:48:49.183Z,18.77
2023-03-29T16:51:51.542Z,18.76
2023-03-29T16:54:53.918Z,18.74
2023-03-29T16:57:56.590Z,18.74
2023-03-29T17:01:07.868Z,18.74
2023-03-29T17:04:10.066Z,18.73
2023-03-29T17:07:12.715Z,18.74
2023-03-29T17:10:14.902Z,18.70
2023-03-29T17:13:17.912Z,18.71
2023-03-29T17:16:20.552Z,18.71
2023-03-29T17:19:23.020Z,18.67
2023-03-29T17:22:25.512Z,18.63
2023-03-29T17:25:30.526Z,18.66
2023-03-29T17:28:33.042Z,18.64
2023-03-29T17:31:36.868Z,18.60
2023-03-29T17:34:39.940Z,18.64
2023-03-29T17:37:43.083Z,18.63
2023-03-29T17:40:52.206Z,18.61
2023-03-29T17:43:54.715Z,18.61
2023-03-29T17:46:57.218Z,18.57
2023-03-29T17:50:00.198Z,18.60
2023-03-29T17:53:02.321Z,18.63
2023-03-29T17:56:07.414Z,18.61
2023-03-29T17:59:09.934Z,18.64
2023-03-29T18:02:21.678Z,18.66
2023-03-29T18:05:23.744Z,18.66
2023-03-29T18:08:26.679Z,18.66
2023-03-29T18:11:29.089Z,18.64
2023-03-29T18:14:32.348Z,18.61
2023-03-29T18:17:35.912Z,18.59
2023-03-29T18:20:38.470Z,18.61
2023-03-29T18:23:44.085Z,18.60
2023-03-29T18:26:46.636Z,18.57
2023-03-29T18:29:49.552Z,18.59
2023-03-29T18:32:52.500Z,18.59
2023-03-29T18:35:54.674Z,18.60
2023-03-29T18:39:04.662Z,18.60
2023-03-29T18:42:06.878Z,18.61
2023-03-29T18:45:10.146Z,18.57
2023-03-29T18:48:12.631Z,18.57
2023-03-29T18:51:15.452Z,18.59
2023-03-29T18:54:18.134Z,18.59
2023-03-29T18:57:20.708Z,18.57
2023-03-29T19:00:22.888Z,18.59
2023-03-29T19:03:26.120Z,18.59
2023-03-29T19:06:28.952Z,18.59
2023-03-29T19:09:32.595Z,18.59
2023-03-29T19:12:35.807Z,18.64
2023-03-29T19:15:40.603Z,18.61
2023-03-29T19:18:43.387Z,18.60
2023-03-29T19:21:48.149Z,18.63
2023-03-29T19:24:50.003Z,18.60
2023-03-29T19:27:52.763Z,18.57
2023-03-29T19:30:56.961Z,18.57
2023-03-29T19:33:59.834Z,18.56
2023-03-29T19:37:02.309Z,18.56
2023-03-29T19:40:06.851Z,18.56
2023-03-29T19:43:09.230Z,18.53
2023-03-29T19:46:12.991Z,18.56
2023-03-29T19:49:15.756Z,18.53
2023-03-29T19:52:18.482Z,18.55
2023-03-29T19:55:21.854Z,18.53
2023-03-29T19:58:24.971Z,18.53
2023-03-29T20:01:28.492Z,18.55
2023-03-29T20:04:33.396Z,18.56
2023-03-29T20:07:36.691Z,18.56
2023-03-29T20:10:39.737Z,18.53
2023-03-29T20:13:43.814Z,18.52
2023-03-29T20:16:46.629Z,18.52
2023-03-29T20:19:48.929Z,18.55
2023-03-29T20:23:05.236Z,18.57
2023-03-29T20:26:08.584Z,18.56
2023-03-29T20:29:11.816Z,18.55
2023-03-29T20:32:14.033Z,18.57
2023-03-29T20:35:16.692Z,18.57
2023-03-29T20:38:18.865Z,18.56
2023-03-29T20:41:21.474Z,18.59
2023-03-29T20:44:26.522Z,18.60
2023-03-29T20:47:29.760Z,18.57
2023-03-29T20:50:31.991Z,18.57
2023-03-29T20:53:36.547Z,18.56
2023-03-29T20:56:39.974Z,18.56
2023-03-29T20:59:43.818Z,18.55
2023-03-29T21:02:47.442Z,18.56
2023-03-29T21:05:54.856Z,18.53
2023-03-29T21:08:58.007Z,18.55
2023-03-29T21:12:00.747Z,18.55
2023-03-29T21:15:03.967Z,18.52
2023-03-29T21:18:07.309Z,18.52
2023-03-29T21:21:11.118Z,18.49
2023-03-29T21:24:14.819Z,18.52
2023-03-29T21:27:18.177Z,18.52
2023-03-29T21:30:20.885Z,18.53
2023-03-29T21:33:23.046Z,18.52
2023-03-29T21:36:27.616Z,18.52
2023-03-29T21:39:30.626Z,18.52
2023-03-29T21:42:34.256Z,18.52
2023-03-29T21:45:36.279Z,18.52
2023-03-29T21:48:39.127Z,18.53
2023-03-29T21:51:41.911Z,18.49
2023-03-29T21:54:44.344Z,18.50
2023-03-29T21:57:46.533Z,18.40
2023-03-29T22:00:49.054Z,18.32
2023-03-29T22:03:51.135Z,17.79
2023-03-29T22:06:54.027Z,17.79
2023-03-29T22:09:58.974Z,17.47
2023-03-29T22:13:01.945Z,17.27
2023-03-29T22:16:04.758Z,17.26
2023-03-29T22:19:08.915Z,17.30
2023-03-29T22:22:14.467Z,17.30
2023-03-29T22:25:18.840Z,17.04
2023-03-29T22:28:21.010Z,17.16
2023-03-29T22:31:26.726Z,17.17
2023-03-29T22:34:30.375Z,16.89
2023-03-29T22:37:33.236Z,17.45
2023-03-29T22:40:35.925Z,17.30
2023-03-29T22:43:38.872Z,17.35
2023-03-29T22:46:41.362Z,17.04
2023-03-29T22:49:44.243Z,16.99
2023-03-29T22:52:46.263Z,16.92
2023-03-29T22:55:48.605Z,17.07
2023-03-29T22:58:51.544Z,17.16
2023-03-29T23:01:54.553Z,17.21
2023-03-29T23:04:56.933Z,17.14
2023-03-29T23:07:59.798Z,17.02
2023-03-29T23:11:02.624Z,17.06
2023-03-29T23:14:05.621Z,16.94
2023-03-29T23:17:09.229Z,16.69
2023-03-29T23:20:11.921Z,16.92
2023-03-29T23:23:16.047Z,16.76
2023-03-29T23:26:18.582Z,16.69
2023-03-29T23:29:20.584Z,16.90
2023-03-29T23:32:23.343Z,16.66
2023-03-29T23:35:25.620Z,16.93
2023-03-29T23:38:28.490Z,16.97
2023-03-29T23:41:30.783Z,16.79
2023-03-29T23:44:33.570Z,16.94
2023-03-29T23:47:37.878Z,17.14
2023-03-29T23:50:40.676Z,17.38
2023-03-29T23:53:43.031Z,17.44
2023-03-29T23:56:46.739Z,17.57
2023-03-29T23:59:52.838Z,17.92
